KDLF/DLF METAR and TAF weather

Enter ICAO airport designator
Station Type Date Time Source
KDLF METAR 2018/12/12 22:56 UTC NOAA

KDLF 122256Z 15005KT 10SM SCT130 OVC180 15/11 A2987 RMK AO2A SLP114 T01450109


Station Type Date Time Source
KDLF Decoded METAR 2018/12/12 22:56 UTC NOAA

Laughlin, Laughlin Air Force Base Auxiliary Airfield, TX, United States (KDLF) 29-07-00N 100-28-00W 294M
Dec 12, 2018 - 05:56 PM EST / 2018.12.12 2256 UTC
Wind: from the SSE (150 degrees) at 6 MPH (5 KT):0
Visibility: 10 mile(s):0
Sky conditions: overcast
Temperature: 58.1 F (14.5 C)
Dew Point: 51.6 F (10.9 C)
Relative Humidity: 78%
Pressure (altimeter): 29.87 in. Hg (1011 hPa)
ob: KDLF 122256Z 15005KT 10SM SCT130 OVC180 15/11 A2987 RMK AO2A SLP114 T01450109
cycle: 23

Station Type Date Time Source
KDLF TAF 2018/12/12 20:27 UTC NOAA

TAF KDLF 122120Z 1220/1324 18006KT 9999 SCT008 BKN100 QNH2985INS
BECMG 1302/1303 VRB06KT 6000 BR BKN120 QNH2975INS
BECMG 1312/1313 34012KT 9999 NSW SKC 510307 QNH2983INS
BECMG 1314/1315 34015G25KT 9999 SKC 520307 QNH2993INS
BECMG 1315/1316 35035G45KT 9999 SCT040 520005 QNH2997INS TX16/1221Z TN07/1311Z


Example: see airport list